Terminal Aerodrome Forecast
Issued by NWS

Home | Current Version | Previous Version | Text Only | Print | Product List | Glossary On
Versions: 1 2 3 4 5 6 7 8 9 10 11 12 13 14 15 16 17 18 19 20 21 22 23 24
000
FTUS43 KDLH 271901 AAA
TAFBRD
TAF AMD
KBRD 271901Z 2719/2818 14010KT P6SM SCT035 BKN050
     FM280200 15004KT P6SM FEW250
     FM280900 14004KT P6SM VCTS SCT025 BKN040CB
     FM281300 15008KT P6SM VCSH SCT007 OVC020
     FM281700 18015G24KT P6SM SCT020=

USA.gov is the U.S. government's official web portal to all federal, state and local government web resources and services.